Ciampino Airport LIRA

Flugplatz Daten

Name: Ciampino Airport

Ident: LIRA

Lat: 41,79940033

Long: 12,59490013

Platzhöhe: 427 ft

IataCode: CIA

City: Roma

Metar

2021/12/03 23:20
LIRA 032320Z 08007KT CAVOK 06/03 Q1011

Taf

2021/12/03 18:00
TAF LIRA 031700Z 0318/0418 04008KT 9999 SCT030
Gewünschte Webcam nicht vorhanden? Dann fügen Sie eine hinzu. Sie wird dann so schnell wie möglich freigeschaltet
Url: Title: